Time;durP1;ratioP1;P1;durP2;ratioP2;P2;SDS_P1;SDS_P2;PMS_P1;PMS_P2;Temp;Humidity;BMP_temperature;BMP_pressure;BME280_temperature;BME280_humidity;BME280_pressure;Samples;Min_cycle;Max_cycle;Signal;HPM_P1;HPM_P2
2022/04/07 00:00:33;;;;;;;7.80;1.90;;;;;;;9.25;100.00;98993.75;4970977;28;20474;-80
2022/04/07 00:02:58;;;;;;;6.20;2.47;;;;;;;9.21;100.00;98978.69;4971516;28;20034;-80
2022/04/07 00:05:24;;;;;;;8.43;1.90;;;;;;;9.22;100.00;98971.38;4969843;28;20428;-79
2022/04/07 00:07:49;;;;;;;5.93;2.35;;;;;;;9.07;100.00;98973.78;4956604;28;20033;-80
2022/04/07 00:10:15;;;;;;;6.13;1.75;;;;;;;9.06;100.00;98966.63;4968816;28;20026;-80
2022/04/07 00:12:42;;;;;;;3.58;1.85;;;;;;;9.06;100.00;98966.63;4956335;28;20109;-80
2022/04/07 00:15:09;;;;;;;8.30;2.28;;;;;;;8.99;100.00;98961.81;4963930;28;20042;-80
2022/04/07 00:17:35;;;;;;;7.47;2.00;;;;;;;9.04;100.00;98958.59;4973103;28;20038;-80
2022/04/07 00:20:01;;;;;;;5.65;2.17;;;;;;;9.00;100.00;98949.88;4969652;28;20026;-80
2022/04/07 00:22:26;;;;;;;6.10;2.10;;;;;;;9.02;100.00;98939.66;4993343;28;20026;-80
2022/04/07 00:24:52;;;;;;;2.78;1.45;;;;;;;9.09;100.00;98939.88;4975889;28;20698;-80
2022/04/07 00:27:17;;;;;;;5.13;1.70;;;;;;;9.01;100.00;98926.16;4965217;28;20494;-80
2022/04/07 00:29:43;;;;;;;7.63;1.75;;;;;;;9.11;100.00;98920.59;4964817;28;20035;-80
2022/04/07 00:32:08;;;;;;;3.20;1.73;;;;;;;9.18;100.00;98929.84;4965808;28;20045;-80
2022/04/07 00:34:34;;;;;;;4.75;1.83;;;;;;;9.19;100.00;98920.66;4974619;28;20053;-80
2022/04/07 00:37:00;;;;;;;6.30;1.98;;;;;;;9.16;100.00;98912.78;4990724;28;20120;-80
2022/04/07 00:39:26;;;;;;;5.57;1.73;;;;;;;9.09;100.00;98903.53;4998389;28;20410;-81
2022/04/07 00:41:51;;;;;;;7.40;2.20;;;;;;;9.09;100.00;98906.25;4947316;28;20483;-81
2022/04/07 00:44:17;;;;;;;8.88;2.20;;;;;;;9.07;100.00;98900.97;4971402;28;20484;-80
2022/04/07 00:46:42;;;;;;;12.20;2.55;;;;;;;9.09;100.00;98900.81;4959630;28;20034;-80
2022/04/07 00:49:09;;;;;;;11.57;2.88;;;;;;;9.00;100.00;98892.56;4981898;28;20050;-80
2022/04/07 00:51:37;;;;;;;11.70;1.98;;;;;;;9.07;100.00;98892.78;4980210;28;20481;-80
2022/04/07 00:54:03;;;;;;;10.27;2.45;;;;;;;9.10;100.00;98886.13;4969526;28;20047;-80
2022/04/07 00:56:30;;;;;;;7.53;2.28;;;;;;;9.11;100.00;98890.56;4965163;28;20094;-80
2022/04/07 00:58:56;;;;;;;5.50;1.83;;;;;;;9.13;100.00;98874.88;4995259;28;20042;-80
2022/04/07 01:01:24;;;;;;;6.90;2.78;;;;;;;9.10;100.00;98881.53;4974244;28;20040;-79
2022/04/07 01:03:50;;;;;;;11.80;2.25;;;;;;;9.04;100.00;98870.41;4991515;28;20026;-79
2022/04/07 01:06:15;;;;;;;6.22;2.25;;;;;;;9.07;100.00;98861.88;4958721;28;20552;-80
2022/04/07 01:08:41;;;;;;;6.82;2.08;;;;;;;9.02;100.00;98856.91;4984974;28;20031;-80
2022/04/07 01:11:08;;;;;;;13.75;2.10;;;;;;;8.99;100.00;98849.06;4965630;28;20049;-80
2022/04/07 01:13:48;;;;;;;7.80;2.15;;;;;;;9.05;100.00;98856.59;4992087;28;20034;-80
2022/04/07 01:16:13;;;;;;;6.25;1.77;;;;;;;9.12;100.00;98849.47;4987992;28;20031;-79
2022/04/07 01:18:40;;;;;;;13.68;2.47;;;;;;;9.10;100.00;98832.41;4962281;28;20034;-79
2022/04/07 01:21:08;;;;;;;8.48;2.55;;;;;;;9.16;100.00;98841.78;4972194;28;20030;-80
2022/04/07 01:23:35;;;;;;;11.32;2.03;;;;;;;9.18;100.00;98835.16;4949204;28;20034;-80
2022/04/07 01:26:02;;;;;;;8.57;2.00;;;;;;;9.15;100.00;98823.69;4987948;28;20038;-79
2022/04/07 01:28:28;;;;;;;8.73;2.67;;;;;;;9.06;100.00;98817.34;4969665;28;20027;-80
2022/04/07 01:30:53;;;;;;;6.93;1.90;;;;;;;9.00;100.00;98827.06;4971419;28;20398;-80
2022/04/07 01:33:19;;;;;;;13.90;2.08;;;;;;;9.00;100.00;98821.59;4991700;28;20066;-80
2022/04/07 01:35:45;;;;;;;7.80;1.88;;;;;;;9.05;100.00;98829.31;4974736;28;20038;-80
2022/04/07 01:38:10;;;;;;;7.75;2.60;;;;;;;8.99;100.00;98811.69;4971227;28;20426;-79
2022/04/07 01:40:37;;;;;;;10.10;2.22;;;;;;;9.03;100.00;98806.75;4955529;28;20061;-79
2022/04/07 01:43:07;;;;;;;9.55;2.25;;;;;;;9.11;100.00;98805.94;4976029;28;20046;-80
2022/04/07 01:45:33;;;;;;;8.80;2.28;;;;;;;9.07;100.00;98790.91;4959011;28;20090;-81
2022/04/07 01:48:01;;;;;;;12.88;2.83;;;;;;;9.06;100.00;98787.31;4987043;28;20482;-80
2022/04/07 01:50:29;;;;;;;12.50;2.28;;;;;;;9.06;100.00;98797.41;4985279;28;20031;-81
2022/04/07 01:52:56;;;;;;;10.88;2.58;;;;;;;9.01;100.00;98786.97;4973873;28;20054;-80
2022/04/07 01:55:23;;;;;;;10.98;3.05;;;;;;;9.01;100.00;98782.34;4987604;28;20406;-80
2022/04/07 01:57:49;;;;;;;7.43;3.55;;;;;;;9.01;100.00;98778.78;4975103;28;20046;-80
2022/04/07 02:00:15;;;;;;;6.15;2.58;;;;;;;8.98;100.00;98770.91;4971834;28;20034;-81
2022/04/07 02:02:41;;;;;;;12.38;3.13;;;;;;;8.94;100.00;98769.53;4974263;28;20039;-80
2022/04/07 02:05:11;;;;;;;6.50;2.47;;;;;;;9.00;100.00;98758.81;4975017;28;20459;-80
2022/04/07 02:07:39;;;;;;;7.90;2.67;;;;;;;8.96;100.00;98751.09;4985714;28;20034;-80
2022/04/07 02:10:06;;;;;;;7.50;2.55;;;;;;;8.95;100.00;98749.38;4969414;28;20031;-79
2022/04/07 02:12:35;;;;;;;8.95;2.33;;;;;;;8.88;100.00;98741.00;4964955;28;20057;-80
2022/04/07 02:15:00;;;;;;;9.13;1.83;;;;;;;8.93;100.00;98735.91;4993835;28;20150;-79
2022/04/07 02:17:26;;;;;;;8.25;2.28;;;;;;;9.00;100.00;98733.38;4986984;28;20062;-79
2022/04/07 02:19:54;;;;;;;14.52;2.35;;;;;;;8.96;100.00;98732.00;4966863;28;20098;-80
2022/04/07 02:22:20;;;;;;;11.80;2.22;;;;;;;8.93;100.00;98714.06;4956440;28;20039;-79
2022/04/07 02:24:47;;;;;;;9.80;2.97;;;;;;;8.96;100.00;98727.41;4980251;28;20054;-80
2022/04/07 02:27:13;;;;;;;9.93;3.25;;;;;;;8.94;100.00;98715.78;4959489;28;20037;-80
2022/04/07 02:29:39;;;;;;;7.22;2.08;;;;;;;8.99;100.00;98721.59;4971540;28;20042;-80
2022/04/07 02:32:05;;;;;;;11.38;3.30;;;;;;;8.98;100.00;98714.44;4974207;28;20046;-80
2022/04/07 02:34:30;;;;;;;9.48;2.10;;;;;;;8.97;100.00;98712.75;4994498;28;20038;-80
2022/04/07 02:36:56;;;;;;;12.38;2.42;;;;;;;8.95;100.00;98706.59;4993801;28;20083;-80
2022/04/07 02:39:22;;;;;;;7.05;1.70;;;;;;;8.98;100.00;98708.97;4967397;28;20027;-80
2022/04/07 02:41:47;;;;;;;12.75;2.40;;;;;;;9.05;100.00;98691.94;4970122;28;20034;-80
2022/04/07 02:44:13;;;;;;;7.97;1.95;;;;;;;9.08;100.00;98686.16;4976459;28;20070;-79
2022/04/07 02:46:38;;;;;;;13.65;2.08;;;;;;;9.07;100.00;98688.03;4979555;28;20043;-79
2022/04/07 02:49:04;;;;;;;12.77;1.98;;;;;;;9.03;100.00;98675.72;4967038;28;20042;-80
2022/04/07 02:51:31;;;;;;;7.57;1.85;;;;;;;9.08;100.00;98678.81;4985064;28;20141;-80
2022/04/07 02:53:59;;;;;;;11.90;3.00;;;;;;;9.12;100.00;98676.63;4966978;28;20047;-80
2022/04/07 02:56:25;;;;;;;10.93;2.08;;;;;;;9.21;100.00;98670.16;4993227;28;20444;-80
2022/04/07 02:58:51;;;;;;;9.20;2.17;;;;;;;9.29;100.00;98672.06;4987436;28;20076;-80
2022/04/07 03:01:17;;;;;;;6.13;2.05;;;;;;;9.25;100.00;98668.81;4970016;28;20395;-80
2022/04/07 03:03:42;;;;;;;13.35;2.42;;;;;;;9.28;100.00;98649.38;4968819;28;20035;-80
2022/04/07 03:06:08;;;;;;;6.80;1.70;;;;;;;9.24;100.00;98628.84;4970185;28;20058;-80
2022/04/07 03:08:33;;;;;;;9.10;2.90;;;;;;;9.34;100.00;98643.19;4968872;28;20491;-79
2022/04/07 03:11:03;;;;;;;21.50;1.92;;;;;;;9.44;100.00;98637.59;4965675;28;20129;-80
2022/04/07 03:13:28;;;;;;;8.38;2.08;;;;;;;9.42;100.00;98650.56;4954301;28;20054;-80
2022/04/07 03:15:54;;;;;;;10.88;1.73;;;;;;;9.37;100.00;98642.88;4965685;28;20089;-80
2022/04/07 03:18:20;;;;;;;16.88;1.98;;;;;;;9.43;100.00;98629.56;4968003;28;20045;-80
2022/04/07 03:20:46;;;;;;;9.05;1.88;;;;;;;9.48;100.00;98619.00;4989525;28;20044;-79
2022/04/07 03:23:11;;;;;;;12.07;2.78;;;;;;;9.56;100.00;98621.75;4992556;28;20389;-80
2022/04/07 03:25:37;;;;;;;13.88;1.80;;;;;;;9.54;100.00;98626.50;4962568;28;20102;-80
2022/04/07 03:28:06;;;;;;;8.48;1.92;;;;;;;9.58;100.00;98619.69;4975696;28;20114;-79
2022/04/07 03:30:32;;;;;;;13.60;2.08;;;;;;;9.45;100.00;98609.25;4971927;28;20039;-79
2022/04/07 03:32:58;;;;;;;7.80;1.52;;;;;;;9.51;100.00;98600.38;4959216;28;20034;-79
2022/04/07 03:35:25;;;;;;;10.15;1.83;;;;;;;9.54;100.00;98580.06;4995784;28;20557;-79
2022/04/07 03:37:50;;;;;;;14.68;3.00;;;;;;;9.54;100.00;98583.66;4983499;28;20058;-80
2022/04/07 03:40:16;;;;;;;10.57;1.77;;;;;;;9.51;100.00;98596.78;4972325;28;20034;-80
2022/04/07 03:42:42;;;;;;;5.80;1.48;;;;;;;9.53;100.00;98586.56;4978185;28;20053;-80
2022/04/07 03:45:07;;;;;;;12.95;2.15;;;;;;;9.55;100.00;98573.56;4971048;28;20509;-81
2022/04/07 03:47:33;;;;;;;6.20;1.38;;;;;;;9.54;100.00;98570.00;4963926;28;20454;-80
2022/04/07 03:49:58;;;;;;;14.45;2.63;;;;;;;9.72;100.00;98577.13;4970946;28;20042;-80
2022/04/07 03:52:24;;;;;;;13.05;1.92;;;;;;;9.60;100.00;98560.25;4987407;28;20042;-79
2022/04/07 03:54:50;;;;;;;14.77;2.10;;;;;;;9.62;100.00;98554.63;4992955;28;20034;-79
2022/04/07 03:57:15;;;;;;;6.78;1.45;;;;;;;9.70;100.00;98562.81;4989525;28;20494;-80
2022/04/07 03:59:42;;;;;;;9.45;1.52;;;;;;;9.65;100.00;98559.75;4968841;28;20041;-79
2022/04/07 04:02:10;;;;;;;11.32;2.25;;;;;;;9.66;100.00;98556.84;4967750;28;20030;-79
2022/04/07 04:04:36;;;;;;;10.63;1.60;;;;;;;9.64;100.00;98556.16;4977260;28;20061;-78
2022/04/07 04:07:03;;;;;;;10.07;2.25;;;;;;;9.67;100.00;98563.13;4969007;28;20088;-79
2022/04/07 04:09:28;;;;;;;16.58;1.75;;;;;;;9.66;100.00;98534.13;4961678;28;20030;-79
2022/04/07 04:11:54;;;;;;;11.27;2.00;;;;;;;9.71;100.00;98532.56;4992773;28;20538;-79
2022/04/07 04:14:19;;;;;;;10.05;1.70;;;;;;;9.58;100.00;98524.06;4981243;28;20030;-79
2022/04/07 04:16:45;;;;;;;11.35;1.92;;;;;;;9.65;100.00;98514.13;4992624;28;20062;-80
2022/04/07 04:19:11;;;;;;;11.93;2.08;;;;;;;9.64;100.00;98481.53;4991098;28;20035;-79
2022/04/07 04:21:36;;;;;;;9.02;1.30;;;;;;;9.73;100.00;98483.22;4968469;28;20502;-78
2022/04/07 04:24:02;;;;;;;9.20;1.52;;;;;;;9.68;100.00;98474.69;4954480;28;20027;-78
2022/04/07 04:26:28;;;;;;;13.07;2.70;;;;;;;9.64;100.00;98478.78;4993886;28;20062;-79
2022/04/07 04:28:53;;;;;;;11.77;3.00;;;;;;;9.58;100.00;98466.69;4997625;28;20465;-79
2022/04/07 04:31:20;;;;;;;8.23;1.38;;;;;;;9.58;100.00;98447.56;4966918;28;20382;-79
2022/04/07 04:33:46;;;;;;;7.25;1.45;;;;;;;9.55;100.00;98440.56;4986137;28;20038;-79
2022/04/07 04:36:11;;;;;;;6.93;1.40;;;;;;;9.52;100.00;98438.19;4988691;28;20548;-79
2022/04/07 04:38:37;;;;;;;9.23;1.52;;;;;;;9.54;100.00;98433.41;4966474;28;20042;-79
2022/04/07 04:41:02;;;;;;;7.18;1.33;;;;;;;9.57;100.00;98424.88;4962577;28;20371;-80
2022/04/07 04:43:28;;;;;;;10.20;1.50;;;;;;;9.50;100.00;98393.81;4948923;28;20403;-79
2022/04/07 04:45:53;;;;;;;8.85;1.73;;;;;;;9.51;100.00;98402.84;4965097;28;20035;-78
2022/04/07 04:48:19;;;;;;;3.80;1.10;;;;;;;9.47;100.00;98406.97;4968001;28;20402;-81
2022/04/07 04:50:44;;;;;;;3.25;0.90;;;;;;;9.43;100.00;98403.75;4954342;28;20035;-79
2022/04/07 04:53:10;;;;;;;4.90;1.33;;;;;;;9.37;100.00;98399.81;4973014;28;20045;-80
2022/04/07 04:55:35;;;;;;;4.50;1.27;;;;;;;9.29;100.00;98402.56;4977220;28;20371;-80
2022/04/07 04:58:00;;;;;;;2.78;1.10;;;;;;;9.22;100.00;98398.84;4951789;28;20042;-81
2022/04/07 05:00:26;;;;;;;5.45;1.30;;;;;;;9.08;100.00;98394.06;4969553;28;20069;-80
2022/04/07 05:02:52;;;;;;;7.93;1.30;;;;;;;9.04;100.00;98390.00;4977563;28;20214;-81
2022/04/07 05:05:18;;;;;;;5.68;1.42;;;;;;;8.94;100.00;98390.19;4956849;28;20499;-81
2022/04/07 05:07:43;;;;;;;6.25;1.90;;;;;;;8.85;100.00;98372.09;4974792;28;20031;-81
2022/04/07 05:10:09;;;;;;;5.18;1.90;;;;;;;8.85;100.00;98380.28;4987566;28;20557;-82
2022/04/07 05:12:35;;;;;;;3.40;1.30;;;;;;;8.88;100.00;98390.88;4963624;28;20034;-82
2022/04/07 05:15:00;;;;;;;2.53;1.55;;;;;;;8.83;100.00;98383.19;4990499;28;20105;-82
2022/04/07 05:17:26;;;;;;;5.53;1.88;;;;;;;8.75;100.00;98362.22;4966840;28;20034;-81
2022/04/07 05:19:51;;;;;;;4.72;2.13;;;;;;;8.77;100.00;98351.13;4974178;28;20082;-82
2022/04/07 05:22:18;;;;;;;5.30;2.10;;;;;;;8.75;100.00;98339.56;4967997;28;20037;-80
2022/04/07 05:24:44;;;;;;;5.88;2.33;;;;;;;8.82;100.00;98337.81;4986080;28;20040;-81
2022/04/07 05:27:09;;;;;;;5.63;2.65;;;;;;;8.74;100.00;98330.53;4967372;28;20070;-81
2022/04/07 05:29:35;;;;;;;9.73;2.53;;;;;;;8.78;100.00;98341.94;4962435;28;20027;-81
2022/04/07 05:32:00;;;;;;;5.60;2.70;;;;;;;8.79;100.00;98319.94;4960123;28;20320;-81
2022/04/07 05:34:26;;;;;;;7.43;2.63;;;;;;;8.82;100.00;98316.88;4970909;28;20026;-81
2022/04/07 05:36:51;;;;;;;7.45;2.80;;;;;;;8.84;100.00;98316.69;4968995;28;20051;-80
2022/04/07 05:39:16;;;;;;;5.57;2.58;;;;;;;8.87;100.00;98308.16;4957147;28;20034;-81
2022/04/07 05:41:42;;;;;;;5.50;2.30;;;;;;;8.92;100.00;98297.56;4985295;28;20089;-81
2022/04/07 05:44:07;;;;;;;7.88;1.67;;;;;;;8.98;100.00;98290.56;4962170;28;20173;-81
2022/04/07 05:46:33;;;;;;;4.43;1.73;;;;;;;8.99;100.00;98284.91;4963544;28;20086;-79
2022/04/07 05:48:58;;;;;;;5.70;1.77;;;;;;;8.99;100.00;98271.28;4975314;28;20038;-81
2022/04/07 05:51:25;;;;;;;18.33;2.65;;;;;;;9.08;100.00;98277.53;4959735;28;20494;-81
2022/04/07 05:53:50;;;;;;;8.35;1.80;;;;;;;9.09;100.00;98271.06;4956568;28;20037;-81
2022/04/07 05:56:15;;;;;;;5.60;1.92;;;;;;;9.04;100.00;98254.38;4981655;28;20030;-81
2022/04/07 05:58:41;;;;;;;9.85;2.47;;;;;;;9.04;100.00;98248.91;4977670;28;20050;-81
2022/04/07 06:01:06;;;;;;;4.72;1.42;;;;;;;9.11;100.00;98229.94;4955436;28;20027;-80
2022/04/07 06:03:32;;;;;;;8.93;2.95;;;;;;;9.11;100.00;98230.78;4953320;28;20038;-79
2022/04/07 06:05:58;;;;;;;12.00;1.83;;;;;;;9.11;100.00;98225.34;4977814;28;20057;-80
2022/04/07 06:08:24;;;;;;;5.50;1.50;;;;;;;9.11;100.00;98229.94;4986754;28;20597;-81
2022/04/07 06:10:49;;;;;;;4.47;1.58;;;;;;;9.10;100.00;98215.47;4960790;28;20062;-80
2022/04/07 06:13:15;;;;;;;3.83;1.10;;;;;;;9.00;100.00;98204.75;4984492;28;20463;-79
2022/04/07 06:15:42;;;;;;;6.65;1.40;;;;;;;9.07;100.00;98204.03;4950289;28;20042;-79
2022/04/07 06:18:07;;;;;;;8.15;1.98;;;;;;;9.01;100.00;98202.88;4983806;28;20046;-80
2022/04/07 06:20:33;;;;;;;7.82;1.80;;;;;;;8.95;100.00;98189.94;4980919;28;20133;-79
2022/04/07 06:23:00;;;;;;;5.15;1.50;;;;;;;8.87;100.00;98193.56;4968759;28;20058;-79
2022/04/07 06:25:26;;;;;;;12.18;1.60;;;;;;;8.87;100.00;98187.25;4949532;28;20034;-80
2022/04/07 06:27:52;;;;;;;6.45;1.30;;;;;;;8.77;100.00;98168.34;4969374;28;20048;-80
2022/04/07 06:30:20;;;;;;;12.55;1.27;;;;;;;8.79;100.00;98178.06;4966782;28;20061;-81
2022/04/07 06:32:46;;;;;;;5.90;1.17;;;;;;;8.75;100.00;98178.59;4953459;28;20030;-81
2022/04/07 06:35:14;;;;;;;7.95;1.30;;;;;;;8.68;100.00;98161.25;4976127;28;20030;-81
2022/04/07 06:37:55;;;;;;;10.00;1.00;;;;;;;8.62;100.00;98147.28;4964175;28;20053;-81
2022/04/07 06:40:23;;;;;;;6.43;1.02;;;;;;;8.53;100.00;98134.69;4979868;28;20047;-81
2022/04/07 06:42:49;;;;;;;4.65;1.17;;;;;;;8.63;100.00;98143.50;4946743;28;20074;-79
2022/04/07 06:45:15;;;;;;;9.60;1.40;;;;;;;8.63;100.00;98118.13;4970068;28;20475;-82
2022/04/07 06:47:42;;;;;;;7.63;1.30;;;;;;;8.62;100.00;98119.13;4973751;28;20129;-81
2022/04/07 06:50:13;;;;;;;7.45;1.08;;;;;;;8.57;100.00;98108.75;4965666;28;20073;-81
2022/04/07 06:52:40;;;;;;;6.72;1.23;;;;;;;8.55;100.00;98091.72;4961016;28;20090;-82
2022/04/07 06:55:07;;;;;;;9.38;1.30;;;;;;;8.54;100.00;98090.00;4950369;28;20057;-81
2022/04/07 06:57:55;;;;;;;5.07;1.08;;;;;;;8.55;100.00;98078.09;4977525;28;20035;-80
2022/04/07 07:00:22;;;;;;;7.57;1.88;;;;;;;8.56;100.00;98059.84;4975635;28;20039;-83
2022/04/07 07:02:51;;;;;;;11.20;1.63;;;;;;;8.63;100.00;98063.56;4963253;28;20033;-80
2022/04/07 07:05:17;;;;;;;7.80;0.80;;;;;;;8.64;100.00;98047.03;4977416;28;20070;-82
2022/04/07 07:07:43;;;;;;;8.48;1.02;;;;;;;8.61;100.00;98044.66;4972716;28;20037;-80
2022/04/07 07:10:08;;;;;;;10.43;1.30;;;;;;;8.56;100.00;98033.44;4980760;28;20525;-80
2022/04/07 07:12:34;;;;;;;6.43;1.10;;;;;;;8.55;100.00;98029.00;4973375;28;20032;-80
2022/04/07 07:15:00;;;;;;;4.68;1.45;;;;;;;8.52;100.00;98020.34;4982270;28;20066;-81
2022/04/07 07:17:33;;;;;;;9.07;1.95;;;;;;;8.39;100.00;97993.63;4983380;28;20042;-81
2022/04/07 07:20:04;;;;;;;4.95;1.52;;;;;;;8.51;100.00;97994.97;4979579;28;20070;-81
2022/04/07 07:22:31;;;;;;;12.70;1.42;;;;;;;8.50;100.00;98000.59;4963593;28;20050;-82
2022/04/07 07:24:56;;;;;;;5.00;1.50;;;;;;;8.50;100.00;97982.34;4950624;29;20027;-81
2022/04/07 07:27:21;;;;;;;5.32;1.80;;;;;;;8.54;100.00;97983.66;4964249;28;20538;-81
2022/04/07 07:29:47;;;;;;;3.80;1.70;;;;;;;8.50;100.00;97976.88;4960833;28;20126;-81
2022/04/07 07:32:13;;;;;;;4.93;1.35;;;;;;;8.58;100.00;97951.44;4967141;28;20066;-81
2022/04/07 07:34:38;;;;;;;9.15;2.35;;;;;;;8.62;100.00;97959.09;4982667;28;20130;-81
2022/04/07 07:37:03;;;;;;;4.68;1.60;;;;;;;8.65;100.00;97938.78;4982779;28;20499;-81
2022/04/07 07:39:29;;;;;;;6.07;1.88;;;;;;;8.64;100.00;97924.31;4973724;28;20039;-80
2022/04/07 07:41:55;;;;;;;5.45;1.35;;;;;;;8.75;100.00;97917.56;4969788;28;20047;-80
2022/04/07 07:44:20;;;;;;;3.97;1.38;;;;;;;8.83;100.00;97906.56;4973733;28;20221;-81
2022/04/07 07:46:45;;;;;;;5.63;1.98;;;;;;;8.87;100.00;97895.28;4979388;28;20100;-79
2022/04/07 07:49:11;;;;;;;3.40;2.00;;;;;;;8.97;100.00;97876.81;4953232;28;20033;-79
2022/04/07 07:51:37;;;;;;;3.75;1.70;;;;;;;9.10;100.00;97884.34;4960560;28;20078;-83
2022/04/07 07:54:04;;;;;;;4.20;1.77;;;;;;;9.11;100.00;97877.84;4972594;28;20035;-82
2022/04/07 07:56:29;;;;;;;7.57;1.95;;;;;;;9.06;100.00;97859.31;4990453;28;21412;-80
2022/04/07 07:58:55;;;;;;;5.32;2.10;;;;;;;9.12;100.00;97866.75;4963277;28;20031;-82
2022/04/07 08:01:20;;;;;;;6.90;1.85;;;;;;;9.15;100.00;97862.78;4960898;28;20031;-81
2022/04/07 08:03:46;;;;;;;7.63;2.40;;;;;;;9.20;100.00;97863.09;4973753;28;20057;-81
2022/04/07 08:06:14;;;;;;;8.45;1.95;;;;;;;9.23;100.00;97870.03;4979094;28;20035;-82
2022/04/07 08:08:40;;;;;;;8.13;2.15;;;;;;;9.34;100.00;97861.41;4983862;28;20049;-82
2022/04/07 08:11:05;;;;;;;2.72;1.55;;;;;;;9.33;100.00;97879.66;4975500;28;20027;-82
2022/04/07 08:13:31;;;;;;;10.50;2.15;;;;;;;9.42;100.00;98038.81;4964631;28;20034;-82
2022/04/07 08:15:56;;;;;;;5.10;0.60;;;;;;;8.22;100.00;98036.47;4975863;28;20043;-83
2022/04/07 08:18:23;;;;;;;3.80;0.47;;;;;;;7.71;100.00;98042.25;4961607;29;20076;-82
2022/04/07 08:20:49;;;;;;;3.55;0.60;;;;;;;7.46;100.00;98034.09;4976449;28;20035;-81
2022/04/07 08:23:15;;;;;;;2.15;0.50;;;;;;;7.51;100.00;98031.72;4969705;28;20346;-78
2022/04/07 08:25:41;;;;;;;1.73;0.70;;;;;;;7.46;100.00;98034.09;4969329;28;20058;-79
2022/04/07 08:28:06;;;;;;;2.50;0.60;;;;;;;7.46;100.00;98036.84;4963150;28;20106;-77
2022/04/07 08:30:34;;;;;;;2.05;0.82;;;;;;;7.37;100.00;98029.69;4970568;28;20065;-78
2022/04/07 08:33:00;;;;;;;0.80;0.40;;;;;;;7.21;100.00;98032.41;4968852;28;20043;-78
2022/04/07 08:35:26;;;;;;;3.40;0.40;;;;;;;7.16;100.00;98043.78;4966483;28;20511;-78
2022/04/07 08:37:53;;;;;;;8.23;0.70;;;;;;;7.16;100.00;98047.34;4989301;28;20490;-79
2022/04/07 08:40:21;;;;;;;0.85;0.43;;;;;;;7.08;100.00;98036.47;4964553;28;20097;-80
2022/04/07 08:42:47;;;;;;;2.63;0.43;;;;;;;7.26;100.00;98039.03;4999994;28;20093;-78
2022/04/07 08:45:12;;;;;;;4.03;0.65;;;;;;;7.40;100.00;98032.06;4981912;28;20984;-79
2022/04/07 08:47:40;;;;;;;4.03;0.50;;;;;;;7.31;100.00;98027.63;4997680;28;20030;-78
2022/04/07 08:50:06;;;;;;;2.47;0.50;;;;;;;7.47;100.00;98029.50;4964994;28;20084;-79
2022/04/07 08:52:33;;;;;;;5.55;0.70;;;;;;;7.58;100.00;98025.59;4965380;28;20085;-78
2022/04/07 08:54:59;;;;;;;4.03;0.73;;;;;;;7.74;100.00;98025.56;4968186;28;20067;-79
2022/04/07 08:57:26;;;;;;;6.97;0.75;;;;;;;7.59;100.00;98013.66;4991907;28;20103;-78
2022/04/07 08:59:51;;;;;;;7.95;1.02;;;;;;;7.81;100.00;98012.94;4989059;28;20022;-79
2022/04/07 09:02:16;;;;;;;6.00;0.60;;;;;;;7.75;100.00;98019.06;4988238;28;20045;-78
2022/04/07 09:04:42;;;;;;;2.05;0.60;;;;;;;7.90;100.00;98028.22;4975905;28;20071;-78
2022/04/07 09:07:11;;;;;;;2.40;0.70;;;;;;;7.87;100.00;98022.25;4997564;28;20391;-78
2022/04/07 09:09:37;;;;;;;4.25;0.75;;;;;;;8.05;100.00;98022.03;5001741;28;20031;-78
2022/04/07 09:12:03;;;;;;;4.40;0.90;;;;;;;8.06;100.00;98027.31;4987083;28;20114;-78
2022/04/07 09:14:33;;;;;;;3.15;0.80;;;;;;;8.81;100.00;98019.66;4968642;28;20034;-79
2022/04/07 09:16:59;;;;;;;2.10;1.17;;;;;;;8.88;100.00;98006.13;4965599;28;20077;-79
2022/04/07 09:19:24;;;;;;;5.38;1.52;;;;;;;9.21;100.00;98009.44;4996858;28;20027;-79
2022/04/07 09:22:10;;;;;;;2.80;1.67;;;;;;;9.52;100.00;98009.34;4994153;28;20387;-78
2022/04/07 09:24:37;;;;;;;6.47;2.22;;;;;;;9.57;100.00;98006.94;4976347;28;20061;-78
2022/04/07 09:27:05;;;;;;;6.60;1.80;;;;;;;9.97;100.00;98003.06;4999631;28;20081;-79
2022/04/07 09:29:38;;;;;;;6.93;2.17;;;;;;;10.66;100.00;98014.53;4992394;28;20474;-80
2022/04/07 09:32:15;;;;;;;3.17;2.03;;;;;;;11.02;100.00;98012.81;4980386;28;20045;-78
2022/04/07 09:34:42;;;;;;;2.33;2.13;;;;;;;10.26;100.00;98013.16;4968140;28;20130;-79
2022/04/07 09:37:09;;;;;;;5.72;2.72;;;;;;;10.21;100.00;97993.75;4962228;28;20057;-80
2022/04/07 09:39:36;;;;;;;5.75;2.60;;;;;;;10.34;100.00;98004.03;4994321;28;20089;-79
2022/04/07 09:42:18;;;;;;;3.17;2.30;;;;;;;10.75;100.00;98007.03;4978681;28;20033;-79
2022/04/07 09:44:43;;;;;;;6.10;2.63;;;;;;;10.81;100.00;97998.06;4992701;28;20045;-79
2022/04/07 09:47:11;;;;;;;4.70;3.05;;;;;;;10.65;100.00;98001.03;4995668;28;20030;-79
2022/04/07 09:49:37;;;;;;;8.68;3.10;;;;;;;11.25;100.00;97992.59;4977232;28;20471;-79
2022/04/07 09:52:03;;;;;;;3.35;2.70;;;;;;;11.61;100.00;98005.31;4955372;28;20514;-79
2022/04/07 09:54:30;;;;;;;6.38;2.88;;;;;;;11.18;100.00;98004.34;4980835;28;20049;-78
2022/04/07 09:56:56;;;;;;;3.58;2.70;;;;;;;12.08;100.00;98001.88;4975154;28;20083;-80
2022/04/07 09:59:22;;;;;;;5.90;2.88;;;;;;;12.70;100.00;98015.69;4972389;28;20042;-79
2022/04/07 10:01:50;;;;;;;7.18;2.50;;;;;;;11.86;100.00;98023.03;4953714;28;20034;-80
2022/04/07 10:04:17;;;;;;;5.32;2.95;;;;;;;11.75;100.00;98009.88;4989598;28;20058;-79
2022/04/07 10:06:43;;;;;;;6.30;3.00;;;;;;;11.07;100.00;98025.91;4974558;28;20462;-78
2022/04/07 10:09:10;;;;;;;4.13;2.90;;;;;;;11.44;100.00;98021.22;4980359;28;20046;-79
2022/04/07 10:11:36;;;;;;;8.13;3.47;;;;;;;11.91;100.00;98016.94;4983448;28;20038;-78
2022/04/07 10:14:02;;;;;;;4.47;2.80;;;;;;;11.88;100.00;98003.63;4976596;28;20030;-78
2022/04/07 10:16:28;;;;;;;7.07;3.50;;;;;;;12.21;100.00;98006.59;4985768;28;20039;-77
2022/04/07 10:18:59;;;;;;;4.95;2.45;;;;;;;12.72;100.00;98008.09;4955477;28;20034;-78
2022/04/07 10:21:28;;;;;;;13.73;3.50;;;;;;;13.61;100.00;98003.44;4952817;28;20046;-79
2022/04/07 10:24:10;;;;;;;7.13;2.40;;;;;;;13.05;100.00;98012.81;4977125;28;20050;-78
2022/04/07 10:26:41;;;;;;;2.30;1.92;;;;;;;12.77;100.00;98010.22;4949294;28;20055;-79
2022/04/07 10:29:06;;;;;;;7.22;2.25;;;;;;;12.72;100.00;98001.75;4954770;28;20173;-78
2022/04/07 10:31:32;;;;;;;1.90;1.27;;;;;;;12.72;100.00;98018.22;4974560;28;20478;-79
2022/04/07 10:34:07;;;;;;;3.85;1.17;;;;;;;12.67;100.00;98016.97;4951289;28;20035;-79
2022/04/07 10:36:38;;;;;;;4.75;1.02;;;;;;;12.92;100.00;98021.03;4960389;28;20027;-79
2022/04/07 10:39:12;;;;;;;2.17;1.17;;;;;;;13.53;100.00;98034.72;4991366;28;20042;-79
2022/04/07 10:41:38;;;;;;;4.20;0.98;;;;;;;13.23;100.00;98032.31;4960287;28;20131;-82
2022/04/07 10:44:11;;;;;;;5.35;0.85;;;;;;;13.18;100.00;98042.22;4956833;28;20067;-79
2022/04/07 10:46:37;;;;;;;;;;;;;;;13.24;100.00;98035.91;4987317;28;20038;-79
2022/04/07 10:49:07;;;;;;;3.15;1.00;;;;;;;13.08;100.00;98033.56;4978901;28;19921;-79
2022/04/07 10:51:58;;;;;;;3.40;1.00;;;;;;;12.95;100.00;98037.09;4968988;28;20085;-78
2022/04/07 10:54:30;;;;;;;3.22;0.95;;;;;;;12.52;100.00;98035.47;4970224;28;20046;-79
2022/04/07 10:57:01;;;;;;;5.43;1.00;;;;;;;13.58;100.00;98036.84;4962397;28;20529;-79
2022/04/07 10:59:29;;;;;;;1.75;0.80;;;;;;;12.77;100.00;98048.66;4970326;28;20034;-79
2022/04/07 11:01:58;;;;;;;5.03;1.85;;;;;;;12.93;100.00;98053.78;4952521;28;20034;-79
2022/04/07 11:04:24;;;;;;;10.57;1.30;;;;;;;12.49;100.00;98064.19;4992132;28;20038;-79
2022/04/07 11:07:08;;;;;;;5.50;1.05;;;;;;;12.00;100.00;98067.84;4950393;28;20034;-80
2022/04/07 11:09:43;;;;;;;3.50;0.90;;;;;;;11.86;100.00;98066.88;4975761;28;20030;-79
2022/04/07 11:12:11;;;;;;;6.53;1.38;;;;;;;11.69;100.00;98074.56;4990086;28;20027;-79
2022/04/07 11:14:37;;;;;;;3.50;1.10;;;;;;;11.83;100.00;98061.81;4992870;28;20430;-81
2022/04/07 11:17:09;;;;;;;6.43;1.10;;;;;;;11.34;100.00;98076.34;4961645;28;20916;-79
2022/04/07 11:20:09;;;;;;;7.63;1.02;;;;;;;11.30;100.00;98075.88;4973356;28;20031;-80
2022/04/07 11:22:58;;;;;;;5.32;0.80;;;;;;;11.15;100.00;98083.28;4971460;28;20034;-83
2022/04/07 11:25:28;;;;;;;10.38;1.35;;;;;;;11.16;100.00;98091.31;4993934;28;20050;-83
2022/04/07 11:28:14;;;;;;;5.97;1.20;;;;;;;11.18;100.00;98091.13;4964252;28;20042;-82
2022/04/07 11:30:49;;;;;;;8.75;1.73;;;;;;;11.01;100.00;98096.00;4993745;28;20042;-80